EGNJ - Humberside
Distance from station: E 5mi, 14km
Updated: 10/24/2017 3:50am
Mostly Cloudy
Mostly Cloudy
 Wind from SSW
Wind: SSW 18 mph , 30 km/h
Temperature: 63°F , 17°C
Dew Point: 59°F , 15°C
Humidity: 88%
Barometer: 29.85 inHg , 1011 hPa
Clouds: Mostly Cloudy
Visibility: 6 miles , 10 km
Cloud details: Partly Cloudy 1000 ft
Mostly Cloudy 1700 ft
2017/10/24 10:50 EGNJ 241050Z 21016KT 9999 SCT010 BKN017 17/15 Q1011